createdAt,value
2023-08-09T00:02:46.619Z,98026.97
2023-08-09T00:07:48.488Z,98036.63
2023-08-09T00:12:50.798Z,98014.31
2023-08-09T00:17:52.728Z,98004.84
2023-08-09T00:22:54.881Z,98009.06
2023-08-09T00:27:57.568Z,98000.03
2023-08-09T00:32:59.592Z,97985.16
2023-08-09T00:38:02.383Z,97971.06
2023-08-09T00:43:04.569Z,97966.63
2023-08-09T00:48:07.089Z,97974.28
2023-08-09T00:53:09.440Z,97965.84
2023-08-09T00:58:11.328Z,97966.63
2023-08-09T01:03:14.761Z,97962.63
2023-08-09T01:08:28.722Z,97964.44
2023-08-09T01:13:32.630Z,97961.41
2023-08-09T01:18:37.528Z,97965.84
2023-08-09T01:23:40.129Z,97970.25
2023-08-09T01:28:42.834Z,97973.88
2023-08-09T01:33:44.701Z,97973.88
2023-08-09T01:39:01.532Z,97969.44
2023-08-09T01:44:05.155Z,97958.78
2023-08-09T01:49:15.317Z,97948.94
2023-08-09T01:54:18.759Z,97947.72
2023-08-09T01:59:20.589Z,97950.75
2023-08-09T02:04:25.303Z,97951.34
2023-08-09T02:09:28.278Z,97944.13
2023-08-09T02:14:30.149Z,97953.81
2023-08-09T02:19:32.043Z,97953.81
2023-08-09T02:24:34.059Z,97938.28
2023-08-09T02:29:37.511Z,97926.41
2023-08-09T02:34:39.429Z,97914.53
2023-08-09T02:39:41.700Z,97912.13
2023-08-09T02:44:44.127Z,97907.91
2023-08-09T02:49:45.929Z,97891.81
2023-08-09T02:54:49.202Z,97893.63
2023-08-09T02:59:51.024Z,97893.84
2023-08-09T03:04:52.890Z,97891.41
2023-08-09T03:09:54.945Z,97894.03
2023-08-09T03:14:57.177Z,97892.22
2023-08-09T03:19:59.391Z,97900.66
2023-08-09T03:25:01.464Z,97898.06
2023-08-09T03:30:09.820Z,97885.78
2023-08-09T03:35:12.311Z,97889.22
2023-08-09T03:40:14.564Z,97880.56
2023-08-09T03:45:18.624Z,97875.31
2023-08-09T03:50:21.635Z,97867.69
2023-08-09T03:55:24.229Z,97866.09
2023-08-09T04:00:27.772Z,97873.31
2023-08-09T04:05:30.008Z,97873.31
2023-08-09T04:10:32.025Z,97870.09
2023-08-09T04:15:35.624Z,97871.13
2023-08-09T04:20:37.532Z,97874.72
2023-08-09T04:25:39.477Z,97878.34
2023-08-09T04:30:41.457Z,97877.34
2023-08-09T04:35:44.271Z,97862.47
2023-08-09T04:40:46.677Z,97868.50
2023-08-09T04:45:48.937Z,97873.72
2023-08-09T04:50:51.677Z,97871.72
2023-08-09T04:55:55.760Z,97875.13
2023-08-09T05:00:59.418Z,97883.19
2023-08-09T05:06:03.405Z,97908.31
2023-08-09T05:11:05.797Z,97923.59
2023-08-09T05:16:08.370Z,97929.63
2023-08-09T05:21:10.294Z,97929.81
2023-08-09T05:26:12.402Z,97964.19
2023-08-09T05:31:14.317Z,97970.19
2023-08-09T05:36:16.252Z,97974.41
2023-08-09T05:41:18.136Z,97991.88
2023-08-09T05:46:20.852Z,97997.88
2023-08-09T05:51:22.765Z,97989.44
2023-08-09T05:56:24.564Z,97981.41
2023-08-09T06:01:26.648Z,97979.59
2023-08-09T06:06:28.598Z,97984.63
2023-08-09T06:11:30.537Z,98004.53
2023-08-09T06:16:36.271Z,97987.03
2023-08-09T06:21:38.153Z,97999.50
2023-08-09T06:26:40.272Z,97989.28
2023-08-09T06:31:43.285Z,97992.09
2023-08-09T06:36:45.178Z,97986.06
2023-08-09T06:41:47.573Z,97981.44
2023-08-09T06:46:50.664Z,97977.19
2023-08-09T06:51:52.630Z,97984.63
2023-08-09T06:56:54.826Z,97972.78
2023-08-09T07:01:56.823Z,97965.38
2023-08-09T07:06:58.644Z,97967.78
2023-08-09T07:12:00.497Z,97954.34
2023-08-09T07:17:05.407Z,97964.59
2023-08-09T07:22:07.409Z,97974.66
2023-08-09T07:27:09.268Z,97987.94
2023-08-09T07:32:11.226Z,97991.97
2023-08-09T07:37:13.229Z,98008.09
2023-08-09T07:42:16.213Z,98010.50
2023-08-09T07:47:18.461Z,98015.34
2023-08-09T07:52:20.825Z,98026.00
2023-08-09T07:57:22.595Z,98035.47
2023-08-09T08:02:24.627Z,98048.75
2023-08-09T08:07:26.519Z,98052.56
2023-08-09T08:12:30.022Z,98050.94
2023-08-09T08:17:33.143Z,98059.00
2023-08-09T08:22:35.114Z,98064.41
2023-08-09T08:27:39.455Z,98058.72
2023-08-09T08:32:42.131Z,98062.75
2023-08-09T08:37:45.205Z,98072.22
2023-08-09T08:42:51.164Z,98082.09
2023-08-09T08:47:56.174Z,98085.78
2023-08-09T08:52:59.837Z,98093.84
2023-08-09T08:58:01.857Z,98098.25
2023-08-09T09:03:03.927Z,98105.91
2023-08-09T09:08:06.538Z,98117.59
2023-08-09T09:13:08.403Z,98124.03
2023-08-09T09:18:10.744Z,98130.88
2023-08-09T09:23:25.707Z,98119.81
2023-08-09T09:28:27.848Z,98129.88
2023-08-09T09:33:36.879Z,98130.88
2023-08-09T09:38:42.346Z,98129.47
2023-08-09T09:43:45.296Z,98143.13
2023-08-09T09:49:00.584Z,98140.91
2023-08-09T09:54:02.724Z,98140.94
2023-08-09T09:59:05.540Z,98140.13
2023-08-09T10:04:11.084Z,98131.53
2023-08-09T10:09:16.954Z,98134.03
2023-08-09T10:14:19.265Z,98132.75
2023-08-09T10:19:25.044Z,98139.47
2023-08-09T10:24:31.258Z,98140.38
2023-08-09T10:29:33.159Z,98151.34
2023-08-09T10:34:45.340Z,98154.13
2023-08-09T10:39:49.208Z,98159.47
2023-08-09T10:44:51.088Z,98149.38
2023-08-09T10:49:53.042Z,98161.69
2023-08-09T10:55:20.096Z,98169.41
2023-08-09T11:00:24.670Z,98170.66
2023-08-09T11:05:28.926Z,98174.44
2023-08-09T11:10:41.353Z,98175.00
2023-08-09T11:15:47.691Z,98171.75
2023-08-09T11:20:49.760Z,98164.81
2023-08-09T11:25:51.696Z,98163.47
2023-08-09T11:30:53.730Z,98170.25
2023-08-09T11:35:55.819Z,98173.59
2023-08-09T11:40:57.697Z,98186.25
2023-08-09T11:46:00.777Z,98202.78
2023-08-09T11:51:07.041Z,98201.63
2023-08-09T11:56:14.532Z,98211.75
2023-08-09T12:01:20.023Z,98205.25
2023-08-09T12:06:43.448Z,98196.50
2023-08-09T12:11:52.330Z,98199.41
2023-08-09T12:16:54.718Z,98205.53
2023-08-09T12:21:58.492Z,98212.78
2023-08-09T12:27:00.783Z,98218.47
2023-08-09T12:32:03.317Z,98225.59
2023-08-09T12:37:06.595Z,98214.91
2023-08-09T12:42:08.984Z,98231.97
2023-08-09T12:47:14.044Z,98225.66
2023-08-09T12:52:16.836Z,98222.59
2023-08-09T12:57:27.484Z,98222.13
2023-08-09T13:02:31.178Z,98240.63
2023-08-09T13:07:35.350Z,98233.06
2023-08-09T13:12:38.132Z,98240.91
2023-08-09T13:17:41.050Z,98234.78
2023-08-09T13:22:44.126Z,98233.69
2023-08-09T13:27:47.157Z,98251.28
2023-08-09T13:32:49.273Z,98255.22
2023-08-09T13:37:51.788Z,98256.31
2023-08-09T13:42:53.729Z,98253.50
2023-08-09T13:47:56.088Z,98261.75
2023-08-09T13:52:58.244Z,98261.31
2023-08-09T13:58:00.139Z,98266.00
2023-08-09T14:03:02.336Z,98263.44
2023-08-09T14:08:05.523Z,98267.53
2023-08-09T14:13:08.770Z,98279.09
2023-08-09T14:18:11.362Z,98285.38
2023-08-09T14:23:13.535Z,98276.66
2023-08-09T14:28:15.597Z,98279.28
2023-08-09T14:33:17.651Z,98289.38
2023-08-09T14:38:19.593Z,98282.38
2023-08-09T14:43:21.709Z,98285.44
2023-08-09T14:48:24.206Z,98286.44
2023-08-09T14:53:25.962Z,98291.00
2023-08-09T14:58:28.689Z,98293.88
2023-08-09T15:03:34.105Z,98292.97
2023-08-09T15:08:38.253Z,98298.50
2023-08-09T15:13:40.795Z,98305.06
2023-08-09T15:18:42.681Z,98309.22
2023-08-09T15:23:44.587Z,98303.06
2023-08-09T15:28:47.217Z,98304.81
2023-08-09T15:33:49.421Z,98316.16
2023-08-09T15:38:51.383Z,98314.59
2023-08-09T15:43:53.277Z,98321.38
2023-08-09T15:48:55.742Z,98311.88
2023-08-09T15:53:57.735Z,98319.09
2023-08-09T15:58:59.857Z,98327.59
2023-08-09T16:04:01.729Z,98321.16
2023-08-09T16:09:09.102Z,98326.03
2023-08-09T16:14:11.696Z,98325.66
2023-08-09T16:19:14.160Z,98327.31
2023-08-09T16:24:16.258Z,98333.81
2023-08-09T16:29:18.261Z,98334.44
2023-08-09T16:34:20.268Z,98336.69
2023-08-09T16:39:22.533Z,98337.13
2023-08-09T16:44:24.810Z,98340.78
2023-08-09T16:49:26.925Z,98346.47
2023-08-09T17:00:07.425Z,98360.25
2023-08-09T17:05:12.101Z,98359.06
2023-08-09T17:10:14.161Z,98361.28
2023-08-09T17:15:16.307Z,98368.78
2023-08-09T17:20:18.426Z,98360.91
2023-08-09T17:25:20.883Z,98359.94
2023-08-09T17:30:23.038Z,98368.44
2023-08-09T17:35:27.956Z,98373.53
2023-08-09T17:40:29.885Z,98379.03
2023-08-09T17:45:31.722Z,98380.47
2023-08-09T17:50:33.797Z,98387.59
2023-08-09T17:55:35.815Z,98387.81
2023-08-09T18:00:38.101Z,98396.31
2023-08-09T18:05:40.072Z,98396.31
2023-08-09T18:10:42.063Z,98416.34
2023-08-09T18:15:43.972Z,98408.69
2023-08-09T18:20:45.982Z,98423.63
2023-08-09T18:25:48.740Z,98433.31
2023-08-09T18:30:50.718Z,98429.66
2023-08-09T18:35:53.701Z,98437.31
2023-08-09T18:40:56.778Z,98436.91
2023-08-09T18:46:00.022Z,98446.16
2023-08-09T18:51:01.966Z,98451.97
2023-08-09T18:56:03.989Z,98460.41
2023-08-09T19:01:06.129Z,98471.88
2023-08-09T19:06:08.688Z,98475.44
2023-08-09T19:11:11.198Z,98485.09
2023-08-09T19:16:13.816Z,98485.84
2023-08-09T19:21:15.706Z,98500.97
2023-08-09T19:26:21.354Z,98498.34
2023-08-09T19:31:24.452Z,98503.38
2023-08-09T19:36:26.373Z,98508.63
2023-08-09T19:41:28.171Z,98502.78
2023-08-09T19:46:30.061Z,98509.19
2023-08-09T19:51:33.701Z,98508.59
2023-08-09T19:56:36.066Z,98517.44
2023-08-09T20:01:37.978Z,98508.34
2023-08-09T20:06:40.890Z,98512.38
2023-08-09T20:11:43.247Z,98520.59
2023-08-09T20:16:45.284Z,98535.28
2023-08-09T20:21:50.103Z,98542.69
2023-08-09T20:26:52.068Z,98540.66
2023-08-09T20:31:53.927Z,98537.59
2023-08-09T20:36:55.824Z,98539.59
2023-08-09T20:41:57.638Z,98540.78
2023-08-09T20:46:59.504Z,98538.38
2023-08-09T20:52:03.916Z,98550.84
2023-08-09T20:57:06.438Z,98541.75
2023-08-09T21:02:09.007Z,98543.75
2023-08-09T21:07:11.789Z,98554.41
2023-08-09T21:12:13.779Z,98567.06
2023-08-09T21:17:15.914Z,98567.25
2023-08-09T21:22:18.204Z,98572.84
2023-08-09T21:27:20.071Z,98572.41
2023-08-09T21:32:22.017Z,98576.03
2023-08-09T21:37:23.911Z,98577.78
2023-08-09T21:42:25.740Z,98572.84
2023-08-09T21:47:28.005Z,98570.19
2023-08-09T21:52:30.055Z,98574.34
2023-08-09T21:57:31.988Z,98568.88
2023-08-09T22:02:34.243Z,98565.19
2023-08-09T22:07:37.241Z,98573.78
2023-08-09T22:12:39.070Z,98587.78
2023-08-09T22:17:41.035Z,98588.31
2023-08-09T22:22:43.227Z,98597.78
2023-08-09T22:27:45.451Z,98592.56
2023-08-09T22:32:47.462Z,98602.19
2023-08-09T22:37:49.391Z,98594.53
2023-08-09T22:42:51.273Z,98596.28
2023-08-09T22:47:53.236Z,98601.59
2023-08-09T22:52:55.173Z,98599.72
2023-08-09T22:57:58.357Z,98594.41
2023-08-09T23:03:00.532Z,98603.59
2023-08-09T23:08:04.459Z,98602.34
2023-08-09T23:13:06.645Z,98598.66
2023-08-09T23:18:10.583Z,98605.22
2023-08-09T23:23:12.672Z,98604.97
2023-08-09T23:28:14.643Z,98604.88
2023-08-09T23:33:17.377Z,98599.00
2023-08-09T23:38:19.477Z,98605.50
2023-08-09T23:43:21.728Z,98611.97
2023-08-09T23:48:24.242Z,98617.66
2023-08-09T23:53:26.130Z,98614.06
2023-08-09T23:58:29.914Z,98618.09
